createdAt,value
2023-05-04T00:03:15.559Z,13.04
2023-05-04T00:07:18.444Z,12.93
2023-05-04T00:11:18.640Z,12.95
2023-05-04T00:15:18.945Z,12.96
2023-05-04T00:19:19.704Z,12.96
2023-05-04T00:23:22.486Z,12.77
2023-05-04T00:27:22.776Z,12.95
2023-05-04T00:31:23.092Z,12.99
2023-05-04T00:35:23.310Z,12.89
2023-05-04T00:39:26.406Z,12.66
2023-05-04T00:43:26.538Z,12.67
2023-05-04T00:47:27.694Z,12.69
2023-05-04T00:51:29.237Z,12.67
2023-05-04T00:55:32.775Z,12.64
2023-05-04T00:59:33.578Z,12.55
2023-05-04T01:03:35.627Z,12.60
2023-05-04T01:07:46.036Z,12.55
2023-05-04T01:12:01.437Z,12.46
2023-05-04T01:16:02.666Z,12.30
2023-05-04T01:20:04.366Z,12.11
2023-05-04T01:24:08.878Z,12.16
2023-05-04T01:28:16.850Z,11.93
2023-05-04T01:32:20.479Z,11.75
2023-05-04T01:36:21.920Z,11.90
2023-05-04T01:40:24.936Z,11.75
2023-05-04T01:44:25.187Z,11.71
2023-05-04T01:48:26.075Z,11.67
2023-05-04T01:52:27.404Z,11.67
2023-05-04T01:56:30.205Z,11.53
2023-05-04T02:00:31.066Z,11.51
2023-05-04T02:04:34.462Z,11.58
2023-05-04T02:08:35.566Z,11.63
2023-05-04T02:12:38.406Z,11.75
2023-05-04T02:16:38.672Z,11.54
2023-05-04T02:20:38.880Z,11.53
2023-05-04T02:24:41.026Z,11.42
2023-05-04T02:28:43.841Z,11.42
2023-05-04T02:32:44.218Z,11.35
2023-05-04T02:36:44.394Z,11.37
2023-05-04T02:40:45.119Z,11.30
2023-05-04T02:44:48.010Z,11.29
2023-05-04T02:48:48.396Z,11.16
2023-05-04T02:52:48.742Z,11.15
2023-05-04T02:56:48.989Z,11.12
2023-05-04T03:00:56.446Z,10.98
2023-05-04T03:04:56.711Z,11.33
2023-05-04T03:08:59.720Z,11.34
2023-05-04T03:13:04.029Z,11.31
2023-05-04T03:17:06.986Z,11.32
2023-05-04T03:21:07.573Z,11.17
2023-05-04T03:25:10.717Z,10.97
2023-05-04T03:29:10.976Z,10.91
2023-05-04T03:33:16.966Z,10.94
2023-05-04T03:37:17.639Z,11.08
2023-05-04T03:41:17.937Z,10.80
2023-05-04T03:45:18.367Z,10.82
2023-05-04T03:49:21.325Z,10.70
2023-05-04T03:53:21.604Z,10.80
2023-05-04T03:57:22.596Z,10.67
2023-05-04T04:01:23.924Z,10.66
2023-05-04T04:05:26.886Z,10.59
2023-05-04T04:09:29.085Z,10.80
2023-05-04T04:13:30.574Z,10.96
2023-05-04T04:17:31.656Z,10.90
2023-05-04T04:21:34.489Z,10.96
2023-05-04T04:25:34.764Z,10.96
2023-05-04T04:29:35.814Z,10.66
2023-05-04T04:33:36.468Z,10.83
2023-05-04T04:37:39.249Z,11.01
2023-05-04T04:41:39.738Z,11.07
2023-05-04T04:45:41.440Z,11.10
2023-05-04T04:49:41.788Z,11.31
2023-05-04T04:53:44.484Z,11.27
2023-05-04T04:57:45.221Z,11.37
2023-05-04T05:01:45.561Z,11.46
2023-05-04T05:05:45.866Z,11.84
2023-05-04T05:09:48.758Z,12.02
2023-05-04T05:13:49.278Z,12.07
2023-05-04T05:17:49.598Z,12.16
2023-05-04T05:21:49.964Z,12.33
2023-05-04T05:25:53.457Z,12.79
2023-05-04T05:29:54.581Z,12.96
2023-05-04T05:33:55.976Z,12.98
2023-05-04T05:37:56.172Z,13.25
2023-05-04T05:42:02.085Z,13.42
2023-05-04T05:46:02.297Z,13.65
2023-05-04T05:50:02.834Z,13.72
2023-05-04T05:54:03.186Z,14.23
2023-05-04T05:58:06.097Z,14.52
2023-05-04T06:02:06.673Z,14.75
2023-05-04T06:06:07.206Z,15.12
2023-05-04T06:10:09.043Z,15.21
2023-05-04T06:14:12.248Z,15.48
2023-05-04T06:18:12.514Z,15.73
2023-05-04T06:22:12.736Z,15.93
2023-05-04T06:26:13.547Z,16.06
2023-05-04T06:30:18.800Z,16.20
2023-05-04T06:34:19.939Z,16.34
2023-05-04T06:38:20.202Z,16.41
2023-05-04T06:42:20.409Z,17.07
2023-05-04T06:46:25.561Z,17.23
2023-05-04T06:50:27.030Z,17.01
2023-05-04T06:54:27.759Z,17.56
2023-05-04T06:58:28.061Z,17.52
2023-05-04T07:02:30.989Z,18.04
2023-05-04T07:06:32.371Z,17.99
2023-05-04T07:10:32.955Z,17.78
2023-05-04T07:14:33.295Z,17.70
2023-05-04T07:18:36.290Z,17.81
2023-05-04T07:22:37.544Z,18.25
2023-05-04T07:26:37.729Z,19.00
2023-05-04T07:30:37.943Z,19.07
2023-05-04T07:34:45.529Z,19.31
2023-05-04T07:38:47.732Z,19.84
2023-05-04T07:42:47.968Z,19.44
2023-05-04T07:46:48.612Z,19.01
2023-05-04T07:50:51.562Z,19.46
2023-05-04T07:54:55.447Z,20.33
2023-05-04T07:58:56.296Z,21.04
2023-05-04T08:02:57.065Z,22.26
2023-05-04T08:06:59.905Z,23.04
2023-05-04T08:11:15.821Z,24.34
2023-05-04T08:15:17.175Z,24.84
2023-05-04T08:19:17.455Z,25.33
2023-05-04T08:23:20.232Z,25.63
2023-05-04T08:27:20.421Z,25.64
2023-05-04T08:31:21.627Z,26.04
2023-05-04T08:35:23.955Z,24.77
2023-05-04T08:39:27.059Z,25.57
2023-05-04T08:43:27.495Z,25.59
2023-05-04T08:47:29.311Z,26.50
2023-05-04T08:51:30.262Z,25.69
2023-05-04T08:55:36.440Z,26.59
2023-05-04T08:59:37.567Z,27.88
2023-05-04T09:03:38.556Z,26.35
2023-05-04T09:07:39.036Z,26.58
2023-05-04T09:11:41.927Z,26.88
2023-05-04T09:15:42.552Z,27.37
2023-05-04T09:19:44.324Z,27.39
2023-05-04T09:23:52.647Z,29.03
2023-05-04T09:27:58.731Z,28.90
2023-05-04T09:31:58.999Z,28.10
2023-05-04T09:35:59.821Z,28.68
2023-05-04T09:40:02.581Z,29.36
2023-05-04T09:44:05.968Z,29.27
2023-05-04T09:48:17.916Z,29.78
2023-05-04T09:52:18.581Z,29.22
2023-05-04T09:56:35.500Z,29.65
2023-05-04T10:00:39.691Z,30.24
2023-05-04T10:04:40.588Z,30.22
2023-05-04T10:08:41.588Z,31.33
2023-05-04T10:12:43.122Z,31.89
2023-05-04T10:17:00.049Z,31.35
2023-05-04T10:21:26.193Z,28.91
2023-05-04T10:26:06.160Z,28.94
2023-05-04T10:30:07.901Z,29.21
2023-05-04T10:34:12.573Z,29.06
2023-05-04T10:38:14.863Z,29.69
2023-05-04T10:42:15.088Z,30.89
2023-05-04T10:46:22.942Z,32.12
2023-05-04T10:50:25.850Z,31.31
2023-05-04T10:54:26.097Z,31.67
2023-05-04T10:58:32.459Z,31.88
2023-05-04T11:02:34.175Z,32.83
2023-05-04T11:06:38.583Z,33.43
2023-05-04T11:10:39.610Z,34.94
2023-05-04T11:14:43.413Z,33.93
2023-05-04T11:18:46.290Z,33.93
2023-05-04T11:22:50.469Z,35.50
2023-05-04T11:26:52.157Z,36.11
2023-05-04T11:30:53.729Z,33.47
2023-05-04T11:34:55.262Z,33.83
2023-05-04T11:38:59.871Z,34.19
2023-05-04T11:43:02.557Z,34.11
2023-05-04T11:47:03.449Z,34.73
2023-05-04T11:51:05.747Z,35.52
2023-05-04T11:55:11.694Z,36.26
2023-05-04T11:59:12.428Z,37.35
2023-05-04T12:03:16.461Z,35.84
2023-05-04T12:07:16.833Z,34.57
2023-05-04T12:11:25.688Z,33.76
2023-05-04T12:15:37.808Z,31.71
2023-05-04T12:19:37.947Z,33.16
2023-05-04T12:23:38.461Z,35.68
2023-05-04T12:27:44.747Z,36.11
2023-05-04T12:31:45.123Z,37.07
2023-05-04T12:35:45.452Z,36.70
2023-05-04T12:39:45.735Z,35.51
2023-05-04T12:43:49.655Z,35.23
2023-05-04T12:47:49.759Z,34.84
2023-05-04T12:51:50.570Z,35.15
2023-05-04T12:55:50.994Z,33.86
2023-05-04T12:59:53.876Z,33.85
2023-05-04T13:03:54.128Z,34.50
2023-05-04T13:07:56.307Z,35.03
2023-05-04T13:11:56.644Z,34.91
2023-05-04T13:16:00.104Z,35.55
2023-05-04T13:20:00.394Z,34.72
2023-05-04T13:24:00.612Z,33.81
2023-05-04T13:28:00.928Z,33.99
2023-05-04T13:32:04.212Z,34.17
2023-05-04T13:36:04.748Z,32.58
2023-05-04T13:40:04.996Z,33.50
2023-05-04T13:44:05.278Z,34.54
2023-05-04T13:48:08.386Z,34.45
2023-05-04T13:52:09.448Z,35.08
2023-05-04T13:56:10.045Z,34.19
2023-05-04T14:00:13.137Z,33.44
2023-05-04T14:04:16.681Z,33.06
2023-05-04T14:08:17.303Z,34.20
2023-05-04T14:12:19.816Z,34.16
2023-05-04T14:16:20.389Z,34.68
2023-05-04T14:20:23.551Z,34.22
2023-05-04T14:24:23.902Z,34.10
2023-05-04T14:28:24.105Z,35.54
2023-05-04T14:32:24.554Z,34.89
2023-05-04T14:36:27.384Z,35.21
2023-05-04T14:40:28.100Z,34.20
2023-05-04T14:44:30.071Z,33.66
2023-05-04T14:48:30.822Z,33.70
2023-05-04T14:52:34.228Z,33.09
2023-05-04T14:56:34.426Z,31.91
2023-05-04T15:00:34.717Z,32.69
2023-05-04T15:04:35.224Z,33.13
2023-05-04T15:08:38.023Z,32.73
2023-05-04T15:12:39.727Z,33.27
2023-05-04T15:16:39.999Z,33.00
2023-05-04T15:20:41.194Z,32.81
2023-05-04T15:24:44.151Z,33.08
2023-05-04T15:28:44.868Z,33.25
2023-05-04T15:32:45.479Z,33.03
2023-05-04T15:36:46.217Z,33.76
2023-05-04T15:40:49.034Z,32.30
2023-05-04T15:44:49.393Z,31.40
2023-05-04T15:48:50.882Z,32.16
2023-05-04T15:52:51.159Z,33.39
2023-05-04T15:56:54.353Z,34.08
2023-05-04T16:00:54.763Z,34.23
2023-05-04T16:04:55.421Z,33.86
2023-05-04T16:08:55.689Z,34.09
2023-05-04T16:13:04.176Z,33.36
2023-05-04T16:17:04.974Z,33.45
2023-05-04T16:21:05.308Z,33.07
2023-05-04T16:25:05.488Z,33.28
2023-05-04T16:29:08.371Z,32.17
2023-05-04T16:33:08.704Z,32.11
2023-05-04T16:37:10.886Z,32.85
2023-05-04T16:41:11.610Z,32.38
2023-05-04T16:45:16.372Z,32.37
2023-05-04T16:49:16.936Z,31.37
2023-05-04T16:53:17.214Z,31.33
2023-05-04T16:57:17.471Z,31.66
2023-05-04T17:01:20.811Z,30.54
2023-05-04T17:05:21.718Z,29.86
2023-05-04T17:09:22.002Z,29.47
2023-05-04T17:13:22.321Z,28.97
2023-05-04T17:17:26.295Z,28.44
2023-05-04T17:21:26.526Z,28.75
2023-05-04T17:25:27.564Z,28.48
2023-05-04T17:29:27.911Z,28.55
2023-05-04T17:33:30.840Z,27.75
2023-05-04T17:37:31.320Z,28.13
2023-05-04T17:41:31.668Z,27.62
2023-05-04T17:45:32.057Z,27.12
2023-05-04T17:49:35.052Z,27.06
2023-05-04T17:53:35.563Z,26.86
2023-05-04T17:57:35.943Z,26.62
2023-05-04T18:01:36.267Z,26.48
2023-05-04T18:05:39.284Z,26.14
2023-05-04T18:09:39.526Z,25.72
2023-05-04T18:13:39.894Z,25.65
2023-05-04T18:17:40.774Z,25.31
2023-05-04T18:21:43.734Z,24.82
2023-05-04T18:25:44.501Z,24.44
2023-05-04T18:29:46.036Z,24.33
2023-05-04T18:33:46.586Z,24.03
2023-05-04T18:37:49.800Z,23.42
2023-05-04T18:41:50.524Z,23.31
2023-05-04T18:45:50.948Z,23.34
2023-05-04T18:49:54.706Z,22.93
2023-05-04T18:53:57.932Z,23.04
2023-05-04T18:57:58.528Z,22.87
2023-05-04T19:01:58.864Z,22.88
2023-05-04T19:05:59.621Z,22.78
2023-05-04T19:10:06.634Z,22.75
2023-05-04T19:14:08.811Z,22.55
2023-05-04T19:22:41.779Z,22.37
2023-05-04T19:26:44.818Z,22.46
2023-05-04T19:30:46.360Z,22.30
2023-05-04T19:34:46.774Z,22.24
2023-05-04T19:38:50.103Z,22.01
2023-05-04T19:42:53.417Z,21.97
2023-05-04T19:46:53.837Z,21.76
2023-05-04T19:50:54.299Z,21.64
2023-05-04T19:54:57.386Z,21.50
2023-05-04T19:59:02.812Z,21.53
2023-05-04T20:03:03.478Z,21.45
2023-05-04T20:07:04.334Z,21.37
2023-05-04T20:11:06.250Z,21.15
2023-05-04T20:15:10.147Z,20.97
2023-05-04T20:19:12.262Z,20.54
2023-05-04T20:23:15.331Z,20.09
2023-05-04T20:27:15.894Z,20.02
2023-05-04T20:31:56.182Z,20.72
2023-05-04T20:35:54.429Z,20.64
2023-05-04T20:40:12.362Z,20.43
2023-05-04T20:44:15.410Z,19.79
2023-05-04T20:48:18.324Z,20.12
2023-05-04T20:52:18.603Z,20.07
2023-05-04T20:56:19.034Z,19.95
2023-05-04T21:00:20.278Z,19.95
2023-05-04T21:04:23.073Z,19.50
2023-05-04T21:08:23.234Z,19.68
2023-05-04T21:12:23.650Z,19.64
2023-05-04T21:16:25.176Z,19.22
2023-05-04T21:20:28.282Z,19.16
2023-05-04T21:24:28.563Z,19.25
2023-05-04T21:28:28.905Z,19.08
2023-05-04T21:32:29.254Z,19.05
2023-05-04T21:36:32.300Z,18.88
2023-05-04T21:40:32.532Z,18.71
2023-05-04T21:44:32.763Z,18.68
2023-05-04T21:48:33.779Z,18.71
2023-05-04T21:52:36.614Z,18.61
2023-05-04T21:56:36.820Z,18.52
2023-05-04T22:00:36.959Z,18.43
2023-05-04T22:04:37.393Z,18.42
2023-05-04T22:08:40.354Z,18.31
2023-05-04T22:12:41.140Z,18.24
2023-05-04T22:16:41.516Z,18.30
2023-05-04T22:20:42.581Z,18.27
2023-05-04T22:24:45.726Z,18.06
2023-05-04T22:28:46.538Z,17.75
2023-05-04T22:32:47.291Z,17.87
2023-05-04T22:36:47.576Z,17.77
2023-05-04T22:40:50.429Z,17.70
2023-05-04T22:44:50.786Z,17.62
2023-05-04T22:48:51.816Z,17.68
2023-05-04T22:52:52.132Z,17.61
2023-05-04T22:56:55.902Z,17.69
2023-05-04T23:00:56.048Z,17.62
2023-05-04T23:04:57.224Z,17.37
2023-05-04T23:08:57.448Z,16.94
2023-05-04T23:13:00.222Z,17.17
2023-05-04T23:17:00.375Z,16.87
2023-05-04T23:21:00.602Z,16.76
2023-05-04T23:25:00.926Z,16.65
2023-05-04T23:29:03.775Z,16.74
2023-05-04T23:33:03.978Z,16.36
2023-05-04T23:37:04.279Z,16.42
2023-05-04T23:41:06.202Z,16.60
2023-05-04T23:45:10.726Z,16.74
2023-05-04T23:49:10.889Z,16.56
2023-05-04T23:53:10.993Z,16.43
2023-05-04T23:57:11.612Z,16.28
